PIA452 OPSD-OPIS
Flight info
| Callsign | PIA452 |
|---|---|
| Flight time | 0h 43m |
| Altitude | 32000 |
| Route | BIREB DCT DELDA DCT KAPMI DCT BOBAM BOBA1J |
| Aircraft | A320/M-SDE3FGHIRWY/LB1 |
Departure
| Time | 2026-05-06 19:55 |
|---|---|
| Airport | Skardu International Airport (OPSD) |
Arrival
| Time | 2026-05-06 20:39 |
|---|---|
| Airport | Islamabad International Airport (OPIS) |
| Time | Latitude | Longitude | Altitude | Speed | Heading |
|---|---|---|---|---|---|
| 2026-05-06 19:41 | 35.33073 | 75.54148 | 7379 ft | 0 kts | 147° |
| 2026-05-06 19:53 | 35.33072 | 75.54153 | 7383 ft | 3 kts | 119° |
| 2026-05-06 19:53 | 35.33093 | 75.54186 | 7381 ft | 4 kts | 23° |
| 2026-05-06 19:53 | 35.33143 | 75.54187 | 7380 ft | 16 kts | 11° |
| 2026-05-06 19:53 | 35.33225 | 75.54301 | 7383 ft | 19 kts | 61° |
| 2026-05-06 19:54 | 35.33257 | 75.54389 | 7383 ft | 2 kts | 347° |
| 2026-05-06 19:54 | 35.33259 | 75.54384 | 7383 ft | 1 kts | 314° |
| 2026-05-06 19:54 | 35.33348 | 75.54307 | 7382 ft | 48 kts | 327° |
| 2026-05-06 19:54 | 35.33854 | 75.53907 | 7382 ft | 122 kts | 327° |
| 2026-05-06 19:55 | 35.34741 | 75.53203 | 7464 ft | 172 kts | 327° |
| 2026-05-06 19:55 | 35.35670 | 75.52377 | 8292 ft | 161 kts | 312° |
| 2026-05-06 19:55 | 35.36391 | 75.51378 | 9075 ft | 158 kts | 312° |
| 2026-05-06 19:55 | 35.37125 | 75.50332 | 9634 ft | 167 kts | 310° |
| 2026-05-06 19:56 | 35.37818 | 75.49094 | 10163 ft | 180 kts | 300° |
| 2026-05-06 19:56 | 35.38531 | 75.47820 | 10742 ft | 182 kts | 321° |
| 2026-05-06 19:56 | 35.39648 | 75.47155 | 11447 ft | 178 kts | 345° |
| 2026-05-06 19:56 | 35.40827 | 75.46748 | 12109 ft | 176 kts | 344° |
| 2026-05-06 19:57 | 35.42010 | 75.46331 | 12657 ft | 178 kts | 343° |
| 2026-05-06 19:57 | 35.43222 | 75.45857 | 13137 ft | 185 kts | 337° |
| 2026-05-06 19:57 | 35.44346 | 75.45053 | 13660 ft | 189 kts | 322° |
| 2026-05-06 19:57 | 35.45322 | 75.43967 | 14197 ft | 190 kts | 318° |
| 2026-05-06 19:58 | 35.46396 | 75.42890 | 14427 ft | 212 kts | 322° |
| 2026-05-06 19:58 | 35.47546 | 75.41759 | 14997 ft | 212 kts | 322° |
| 2026-05-06 19:58 | 35.48683 | 75.40609 | 15527 ft | 213 kts | 323° |
| 2026-05-06 19:58 | 35.49824 | 75.39432 | 15993 ft | 218 kts | 321° |
| 2026-05-06 19:59 | 35.51018 | 75.38202 | 16273 ft | 228 kts | 322° |
| 2026-05-06 19:59 | 35.52241 | 75.36934 | 16696 ft | 232 kts | 322° |
| 2026-05-06 19:59 | 35.53465 | 75.35641 | 17168 ft | 234 kts | 320° |
| 2026-05-06 19:59 | 35.54491 | 75.34074 | 17661 ft | 239 kts | 300° |
| 2026-05-06 20:00 | 35.55191 | 75.32185 | 17935 ft | 249 kts | 295° |
| 2026-05-06 20:00 | 35.55859 | 75.30158 | 18065 ft | 263 kts | 294° |
| 2026-05-06 20:00 | 35.56538 | 75.28002 | 18192 ft | 278 kts | 293° |
| 2026-05-06 20:00 | 35.57244 | 75.25705 | 18310 ft | 297 kts | 292° |
| 2026-05-06 20:01 | 35.57994 | 75.23250 | 18458 ft | 317 kts | 292° |
| 2026-05-06 20:01 | 35.58788 | 75.20643 | 18597 ft | 335 kts | 292° |
| 2026-05-06 20:01 | 35.59626 | 75.17885 | 18715 ft | 352 kts | 292° |
| 2026-05-06 20:01 | 35.60499 | 75.15007 | 18835 ft | 368 kts | 292° |
| 2026-05-06 20:02 | 35.61412 | 75.12006 | 18949 ft | 383 kts | 292° |
| 2026-05-06 20:02 | 35.62364 | 75.08880 | 19134 ft | 395 kts | 292° |
| 2026-05-06 20:02 | 35.63329 | 75.05703 | 19549 ft | 399 kts | 292° |
| 2026-05-06 20:02 | 35.64306 | 75.02485 | 20019 ft | 403 kts | 292° |
| 2026-05-06 20:03 | 35.65289 | 74.99250 | 20543 ft | 406 kts | 292° |
| 2026-05-06 20:03 | 35.66276 | 74.95992 | 21061 ft | 408 kts | 292° |
| 2026-05-06 20:03 | 35.67270 | 74.92707 | 21525 ft | 411 kts | 292° |
| 2026-05-06 20:03 | 35.68280 | 74.89363 | 22010 ft | 413 kts | 292° |
| 2026-05-06 20:04 | 35.69284 | 74.86037 | 22528 ft | 416 kts | 291° |
| 2026-05-06 20:04 | 35.70013 | 74.82576 | 23000 ft | 421 kts | 280° |
| 2026-05-06 20:04 | 35.70193 | 74.78964 | 23449 ft | 426 kts | 269° |
| 2026-05-06 20:04 | 35.69803 | 74.75342 | 23880 ft | 430 kts | 257° |
| 2026-05-06 20:05 | 35.68863 | 74.71836 | 24262 ft | 434 kts | 246° |
| 2026-05-06 20:05 | 35.67499 | 74.68516 | 24620 ft | 436 kts | 243° |
| 2026-05-06 20:05 | 35.66090 | 74.65208 | 24964 ft | 438 kts | 243° |
| 2026-05-06 20:05 | 35.64673 | 74.61881 | 25288 ft | 440 kts | 243° |
| 2026-05-06 20:06 | 35.63246 | 74.58533 | 25630 ft | 442 kts | 243° |
| 2026-05-06 20:06 | 35.61815 | 74.55178 | 25974 ft | 445 kts | 243° |
| 2026-05-06 20:06 | 35.60373 | 74.51806 | 26308 ft | 447 kts | 243° |
| 2026-05-06 20:06 | 35.58926 | 74.48424 | 26648 ft | 449 kts | 243° |
| 2026-05-06 20:07 | 35.57469 | 74.45022 | 26981 ft | 450 kts | 243° |
| 2026-05-06 20:07 | 35.56010 | 74.41614 | 27301 ft | 452 kts | 243° |
| 2026-05-06 20:07 | 35.54539 | 74.38182 | 27619 ft | 454 kts | 243° |
| 2026-05-06 20:07 | 35.53064 | 74.34745 | 27889 ft | 456 kts | 243° |
| 2026-05-06 20:08 | 35.51584 | 74.31297 | 28197 ft | 458 kts | 243° |
| 2026-05-06 20:08 | 35.50094 | 74.27825 | 28481 ft | 460 kts | 243° |
| 2026-05-06 20:08 | 35.48599 | 74.24352 | 28764 ft | 462 kts | 243° |
| 2026-05-06 20:08 | 35.47095 | 74.20866 | 29012 ft | 463 kts | 243° |
| 2026-05-06 20:09 | 35.45583 | 74.17369 | 29274 ft | 465 kts | 243° |
| 2026-05-06 20:09 | 35.44061 | 74.13856 | 29516 ft | 467 kts | 243° |
| 2026-05-06 20:09 | 35.42494 | 74.10355 | 29757 ft | 469 kts | 239° |
| 2026-05-06 20:09 | 35.40582 | 74.07106 | 29981 ft | 472 kts | 230° |
| 2026-05-06 20:10 | 35.38310 | 74.04191 | 30217 ft | 474 kts | 225° |
| 2026-05-06 20:10 | 35.35962 | 74.01348 | 30427 ft | 476 kts | 225° |
| 2026-05-06 20:10 | 35.33610 | 73.98495 | 30644 ft | 477 kts | 226° |
| 2026-05-06 20:10 | 35.31250 | 73.95630 | 30833 ft | 478 kts | 226° |
| 2026-05-06 20:11 | 35.28887 | 73.92761 | 31078 ft | 478 kts | 226° |
| 2026-05-06 20:11 | 35.26519 | 73.89890 | 31351 ft | 478 kts | 226° |
| 2026-05-06 20:11 | 35.24160 | 73.87032 | 31629 ft | 477 kts | 226° |
| 2026-05-06 20:11 | 35.21769 | 73.84144 | 31907 ft | 476 kts | 226° |
| 2026-05-06 20:12 | 35.19410 | 73.81297 | 32140 ft | 476 kts | 226° |
| 2026-05-06 20:12 | 35.17063 | 73.78469 | 32202 ft | 472 kts | 226° |
| 2026-05-06 20:12 | 35.12417 | 73.72865 | 32224 ft | 468 kts | 227° |
| 2026-05-06 20:13 | 35.07788 | 73.67288 | 32223 ft | 467 kts | 227° |
| 2026-05-06 20:13 | 35.03152 | 73.61723 | 32207 ft | 468 kts | 227° |
| 2026-05-06 20:14 | 34.98509 | 73.56145 | 32201 ft | 468 kts | 227° |
| 2026-05-06 20:14 | 34.93870 | 73.50584 | 32154 ft | 468 kts | 227° |
| 2026-05-06 20:15 | 34.89222 | 73.45020 | 32132 ft | 468 kts | 227° |
| 2026-05-06 20:15 | 34.84577 | 73.39475 | 32130 ft | 468 kts | 228° |
| 2026-05-06 20:16 | 34.79915 | 73.33923 | 31801 ft | 469 kts | 228° |
| 2026-05-06 20:16 | 34.77697 | 73.31283 | 31537 ft | 469 kts | 227° |
| 2026-05-06 20:16 | 34.75348 | 73.28487 | 31227 ft | 471 kts | 227° |
| 2026-05-06 20:17 | 34.73006 | 73.25703 | 30984 ft | 470 kts | 228° |
| 2026-05-06 20:17 | 34.70670 | 73.22929 | 30695 ft | 468 kts | 227° |
| 2026-05-06 20:17 | 34.68346 | 73.20173 | 30454 ft | 467 kts | 227° |
| 2026-05-06 20:17 | 34.66029 | 73.17424 | 30201 ft | 465 kts | 227° |
| 2026-05-06 20:18 | 34.63718 | 73.14687 | 29954 ft | 463 kts | 226° |
| 2026-05-06 20:18 | 34.61220 | 73.12220 | 29667 ft | 464 kts | 216° |
| 2026-05-06 20:18 | 34.58385 | 73.10342 | 29390 ft | 465 kts | 204° |
| 2026-05-06 20:18 | 34.55311 | 73.09131 | 29099 ft | 466 kts | 193° |
| 2026-05-06 20:19 | 34.52096 | 73.08624 | 28799 ft | 467 kts | 182° |
| 2026-05-06 20:19 | 34.48853 | 73.08712 | 28530 ft | 466 kts | 178° |
| 2026-05-06 20:19 | 34.45618 | 73.08862 | 28249 ft | 464 kts | 178° |
| 2026-05-06 20:19 | 34.42398 | 73.09005 | 27984 ft | 462 kts | 178° |
| 2026-05-06 20:20 | 34.39155 | 73.09143 | 27740 ft | 459 kts | 178° |
| 2026-05-06 20:20 | 34.36012 | 73.09278 | 27472 ft | 457 kts | 178° |
| 2026-05-06 20:20 | 34.32802 | 73.09417 | 27213 ft | 455 kts | 178° |
| 2026-05-06 20:20 | 34.29684 | 73.09552 | 26959 ft | 454 kts | 178° |
| 2026-05-06 20:21 | 34.26493 | 73.09692 | 26693 ft | 451 kts | 178° |
| 2026-05-06 20:21 | 34.23377 | 73.09833 | 26144 ft | 448 kts | 178° |
| 2026-05-06 20:21 | 34.20261 | 73.09977 | 25578 ft | 446 kts | 178° |
| 2026-05-06 20:21 | 34.17176 | 73.10116 | 25029 ft | 443 kts | 178° |
| 2026-05-06 20:22 | 34.14103 | 73.10253 | 24477 ft | 440 kts | 178° |
| 2026-05-06 20:22 | 34.11054 | 73.10386 | 23973 ft | 437 kts | 178° |
| 2026-05-06 20:22 | 34.08026 | 73.10517 | 23420 ft | 435 kts | 178° |
| 2026-05-06 20:22 | 34.05032 | 73.10647 | 22885 ft | 431 kts | 178° |
| 2026-05-06 20:23 | 34.02057 | 73.10778 | 22395 ft | 426 kts | 178° |
| 2026-05-06 20:23 | 33.99107 | 73.10910 | 21914 ft | 423 kts | 178° |
| 2026-05-06 20:23 | 33.96179 | 73.11039 | 21435 ft | 419 kts | 178° |
| 2026-05-06 20:23 | 33.93273 | 73.11166 | 20952 ft | 416 kts | 178° |
| 2026-05-06 20:24 | 33.90384 | 73.11291 | 20473 ft | 414 kts | 178° |
| 2026-05-06 20:24 | 33.87513 | 73.11412 | 19977 ft | 413 kts | 178° |
| 2026-05-06 20:24 | 33.84645 | 73.11533 | 19466 ft | 411 kts | 178° |
| 2026-05-06 20:24 | 33.81797 | 73.11652 | 18970 ft | 409 kts | 178° |
| 2026-05-06 20:25 | 33.78959 | 73.11773 | 18467 ft | 407 kts | 178° |
| 2026-05-06 20:25 | 33.76138 | 73.11898 | 17916 ft | 405 kts | 177° |
| 2026-05-06 20:25 | 33.73325 | 73.12027 | 17375 ft | 403 kts | 177° |
| 2026-05-06 20:25 | 33.70540 | 73.12152 | 16865 ft | 400 kts | 178° |
| 2026-05-06 20:26 | 33.67767 | 73.12275 | 16361 ft | 397 kts | 178° |
| 2026-05-06 20:26 | 33.65040 | 73.12395 | 16176 ft | 386 kts | 178° |
| 2026-05-06 20:26 | 33.62465 | 73.12509 | 16047 ft | 374 kts | 178° |
| 2026-05-06 20:26 | 33.60723 | 73.12585 | 16000 ft | 366 kts | 178° |
| 2026-05-06 20:27 | 33.58229 | 73.12419 | 15841 ft | 355 kts | 195° |
| 2026-05-06 20:27 | 33.56056 | 73.11191 | 15703 ft | 341 kts | 221° |
| 2026-05-06 20:27 | 33.54558 | 73.09095 | 15577 ft | 325 kts | 245° |
| 2026-05-06 20:27 | 33.53745 | 73.06637 | 15440 ft | 310 kts | 253° |
| 2026-05-06 20:28 | 33.53044 | 73.04256 | 15196 ft | 296 kts | 253° |
| 2026-05-06 20:28 | 33.52367 | 73.01952 | 14765 ft | 291 kts | 253° |
| 2026-05-06 20:28 | 33.51698 | 72.99678 | 14279 ft | 288 kts | 253° |
| 2026-05-06 20:28 | 33.51032 | 72.97427 | 13805 ft | 286 kts | 253° |
| 2026-05-06 20:29 | 33.50369 | 72.95193 | 13289 ft | 283 kts | 253° |
| 2026-05-06 20:29 | 33.49744 | 72.93091 | 12772 ft | 282 kts | 253° |
| 2026-05-06 20:29 | 33.49092 | 72.90895 | 12257 ft | 279 kts | 253° |
| 2026-05-06 20:29 | 33.48444 | 72.88713 | 11772 ft | 276 kts | 253° |
| 2026-05-06 20:30 | 33.47812 | 72.86579 | 11454 ft | 270 kts | 253° |
| 2026-05-06 20:30 | 33.46555 | 72.82358 | 10794 ft | 268 kts | 253° |
| 2026-05-06 20:30 | 33.46113 | 72.80216 | 10428 ft | 264 kts | 268° |
| 2026-05-06 20:31 | 33.46191 | 72.78052 | 10084 ft | 259 kts | 282° |
| 2026-05-06 20:31 | 33.46502 | 72.75931 | 9793 ft | 256 kts | 282° |
| 2026-05-06 20:31 | 33.46802 | 72.73837 | 9517 ft | 257 kts | 282° |
| 2026-05-06 20:31 | 33.47109 | 72.71686 | 8941 ft | 262 kts | 281° |
| 2026-05-06 20:32 | 33.47409 | 72.69556 | 8413 ft | 258 kts | 281° |
| 2026-05-06 20:32 | 33.47705 | 72.67445 | 7859 ft | 256 kts | 281° |
| 2026-05-06 20:32 | 33.48000 | 72.65357 | 7325 ft | 253 kts | 281° |
| 2026-05-06 20:32 | 33.48301 | 72.63289 | 6800 ft | 251 kts | 281° |
| 2026-05-06 20:33 | 33.48616 | 72.61243 | 6276 ft | 249 kts | 283° |
| 2026-05-06 20:33 | 33.49317 | 72.59378 | 5730 ft | 247 kts | 309° |
| 2026-05-06 20:33 | 33.50679 | 72.58119 | 5206 ft | 245 kts | 333° |
| 2026-05-06 20:33 | 33.52272 | 72.57436 | 4729 ft | 243 kts | 348° |
| 2026-05-06 20:34 | 33.53949 | 72.57379 | 4230 ft | 242 kts | 11° |
| 2026-05-06 20:34 | 33.55492 | 72.58129 | 3800 ft | 238 kts | 33° |
| 2026-05-06 20:34 | 33.56661 | 72.59411 | 3710 ft | 220 kts | 52° |
| 2026-05-06 20:34 | 33.57407 | 72.60984 | 3757 ft | 216 kts | 68° |
| 2026-05-06 20:35 | 33.57735 | 72.62723 | 3721 ft | 213 kts | 86° |
| 2026-05-06 20:35 | 33.57625 | 72.64491 | 3709 ft | 213 kts | 101° |
| 2026-05-06 20:35 | 33.57358 | 72.66198 | 3710 ft | 204 kts | 101° |
| 2026-05-06 20:35 | 33.57102 | 72.67850 | 3647 ft | 196 kts | 100° |
| 2026-05-06 20:36 | 33.56864 | 72.69389 | 3484 ft | 183 kts | 101° |
| 2026-05-06 20:36 | 33.56635 | 72.70859 | 3258 ft | 177 kts | 101° |
| 2026-05-06 20:36 | 33.56412 | 72.72293 | 3031 ft | 175 kts | 101° |
| 2026-05-06 20:36 | 33.56194 | 72.73696 | 2811 ft | 165 kts | 100° |
| 2026-05-06 20:37 | 33.55988 | 72.75017 | 2621 ft | 158 kts | 101° |
| 2026-05-06 20:37 | 33.55788 | 72.76284 | 2466 ft | 152 kts | 101° |
| 2026-05-06 20:37 | 33.55597 | 72.77508 | 2304 ft | 148 kts | 102° |
| 2026-05-06 20:37 | 33.55413 | 72.78709 | 2129 ft | 146 kts | 101° |
| 2026-05-06 20:38 | 33.55227 | 72.79892 | 1923 ft | 143 kts | 101° |
| 2026-05-06 20:38 | 33.55043 | 72.81056 | 1775 ft | 141 kts | 99° |
| 2026-05-06 20:38 | 33.54886 | 72.82083 | 1760 ft | 105 kts | 100° |
| 2026-05-06 20:38 | 33.54776 | 72.82764 | 1753 ft | 66 kts | 101° |
| 2026-05-06 20:39 | 33.54808 | 72.83142 | 1766 ft | 33 kts | 58° |
| 2026-05-06 20:39 | 33.54874 | 72.83387 | 1764 ft | 29 kts | 80° |
| 2026-05-06 20:39 | 33.55008 | 72.83484 | 1769 ft | 21 kts | 11° |
| 2026-05-06 20:39 | 33.55149 | 72.83518 | 1771 ft | 21 kts | 9° |
| 2026-05-06 20:40 | 33.55278 | 72.83543 | 1770 ft | 17 kts | 3° |
| 2026-05-06 20:40 | 33.55341 | 72.83453 | 1772 ft | 14 kts | 279° |
| 2026-05-06 20:40 | 33.55360 | 72.83351 | 1771 ft | 10 kts | 308° |
| 2026-05-06 20:40 | 33.55416 | 72.83351 | 1771 ft | 6 kts | 11° |
| 2026-05-06 20:41 | 33.55436 | 72.83355 | 1770 ft | 0 kts | 10° |
| 2026-05-06 20:41 | 33.55438 | 72.83356 | 1770 ft | 1 kts | 10° |